sensor_id;sensor_type;location;lat;lon;timestamp;temperature;humidity
14378;DHT22;7272;53.668;9.578;2022-07-23T00:01:30;16.80;99.90
14378;DHT22;7272;53.668;9.578;2022-07-23T00:04:32;16.70;99.90
14378;DHT22;7272;53.668;9.578;2022-07-23T00:07:33;16.80;99.90
14378;DHT22;7272;53.668;9.578;2022-07-23T00:10:37;16.80;99.90
14378;DHT22;7272;53.668;9.578;2022-07-23T00:13:39;17.00;99.90
14378;DHT22;7272;53.668;9.578;2022-07-23T00:16:41;17.10;99.90
14378;DHT22;7272;53.668;9.578;2022-07-23T00:19:43;17.20;99.90
14378;DHT22;7272;53.668;9.578;2022-07-23T00:22:46;17.20;99.90
14378;DHT22;7272;53.668;9.578;2022-07-23T00:25:49;17.20;99.90
14378;DHT22;7272;53.668;9.578;2022-07-23T00:28:51;17.20;99.90
14378;DHT22;7272;53.668;9.578;2022-07-23T00:31:53;17.20;99.90
14378;DHT22;7272;53.668;9.578;2022-07-23T00:34:55;17.20;99.90
14378;DHT22;7272;53.668;9.578;2022-07-23T00:37:57;17.30;99.90
14378;DHT22;7272;53.668;9.578;2022-07-23T00:41:01;17.40;99.90
14378;DHT22;7272;53.668;9.578;2022-07-23T00:44:18;17.30;99.90
14378;DHT22;7272;53.668;9.578;2022-07-23T00:47:20;17.30;99.90
14378;DHT22;7272;53.668;9.578;2022-07-23T00:50:23;17.30;99.90
14378;DHT22;7272;53.668;9.578;2022-07-23T00:53:25;17.20;99.90
14378;DHT22;7272;53.668;9.578;2022-07-23T00:56:29;17.40;99.90
14378;DHT22;7272;53.668;9.578;2022-07-23T00:59:31;17.60;99.90
14378;DHT22;7272;53.668;9.578;2022-07-23T01:02:33;17.40;99.90
14378;DHT22;7272;53.668;9.578;2022-07-23T01:05:35;17.20;99.90
14378;DHT22;7272;53.668;9.578;2022-07-23T01:08:38;17.10;99.90
14378;DHT22;7272;53.668;9.578;2022-07-23T01:11:41;17.00;99.90
14378;DHT22;7272;53.668;9.578;2022-07-23T01:14:44;17.00;99.90
14378;DHT22;7272;53.668;9.578;2022-07-23T01:17:46;17.10;99.90
14378;DHT22;7272;53.668;9.578;2022-07-23T01:20:48;17.30;99.90
14378;DHT22;7272;53.668;9.578;2022-07-23T01:23:52;17.20;99.90
14378;DHT22;7272;53.668;9.578;2022-07-23T01:26:54;17.10;99.90
14378;DHT22;7272;53.668;9.578;2022-07-23T01:29:57;17.10;99.90
14378;DHT22;7272;53.668;9.578;2022-07-23T01:33:01;17.10;99.90
14378;DHT22;7272;53.668;9.578;2022-07-23T01:36:03;17.10;99.90
14378;DHT22;7272;53.668;9.578;2022-07-23T01:39:07;17.20;99.90
14378;DHT22;7272;53.668;9.578;2022-07-23T01:42:09;17.40;99.90
14378;DHT22;7272;53.668;9.578;2022-07-23T01:45:11;17.30;99.90
14378;DHT22;7272;53.668;9.578;2022-07-23T01:48:18;17.20;99.90
14378;DHT22;7272;53.668;9.578;2022-07-23T01:51:35;17.10;99.90
14378;DHT22;7272;53.668;9.578;2022-07-23T01:54:45;17.10;99.90
14378;DHT22;7272;53.668;9.578;2022-07-23T01:57:47;17.00;99.90
14378;DHT22;7272;53.668;9.578;2022-07-23T02:00:52;17.00;99.90
14378;DHT22;7272;53.668;9.578;2022-07-23T02:03:54;17.00;99.90
14378;DHT22;7272;53.668;9.578;2022-07-23T02:06:56;17.00;99.90
14378;DHT22;7272;53.668;9.578;2022-07-23T02:10:03;17.00;99.90
14378;DHT22;7272;53.668;9.578;2022-07-23T02:13:05;17.10;99.90
14378;DHT22;7272;53.668;9.578;2022-07-23T02:16:07;17.10;99.90
14378;DHT22;7272;53.668;9.578;2022-07-23T02:19:09;17.10;99.90
14378;DHT22;7272;53.668;9.578;2022-07-23T02:22:11;17.20;99.90
14378;DHT22;7272;53.668;9.578;2022-07-23T02:25:14;17.20;99.90
14378;DHT22;7272;53.668;9.578;2022-07-23T02:28:22;17.10;99.90
14378;DHT22;7272;53.668;9.578;2022-07-23T02:31:24;17.10;99.90
14378;DHT22;7272;53.668;9.578;2022-07-23T02:34:26;17.10;99.90
14378;DHT22;7272;53.668;9.578;2022-07-23T02:37:28;17.10;99.90
14378;DHT22;7272;53.668;9.578;2022-07-23T02:40:32;17.20;99.90
14378;DHT22;7272;53.668;9.578;2022-07-23T02:43:34;17.30;99.90
14378;DHT22;7272;53.668;9.578;2022-07-23T02:46:36;17.20;99.90
14378;DHT22;7272;53.668;9.578;2022-07-23T02:49:38;17.20;99.90
14378;DHT22;7272;53.668;9.578;2022-07-23T02:52:42;17.10;99.90
14378;DHT22;7272;53.668;9.578;2022-07-23T02:55:45;17.00;99.90
14378;DHT22;7272;53.668;9.578;2022-07-23T02:58:47;17.00;99.90
14378;DHT22;7272;53.668;9.578;2022-07-23T03:01:49;17.00;99.90
14378;DHT22;7272;53.668;9.578;2022-07-23T03:04:52;17.10;99.90
14378;DHT22;7272;53.668;9.578;2022-07-23T03:07:54;17.00;99.90
14378;DHT22;7272;53.668;9.578;2022-07-23T03:10:58;16.90;99.90
14378;DHT22;7272;53.668;9.578;2022-07-23T03:14:00;16.90;99.90
14378;DHT22;7272;53.668;9.578;2022-07-23T03:17:02;16.80;99.90
14378;DHT22;7272;53.668;9.578;2022-07-23T03:20:06;16.80;99.90
14378;DHT22;7272;53.668;9.578;2022-07-23T03:23:08;16.80;99.90
14378;DHT22;7272;53.668;9.578;2022-07-23T03:26:13;16.90;99.90
14378;DHT22;7272;53.668;9.578;2022-07-23T03:29:15;16.80;99.90
14378;DHT22;7272;53.668;9.578;2022-07-23T03:32:20;16.80;99.90
14378;DHT22;7272;53.668;9.578;2022-07-23T03:35:22;16.70;99.90
14378;DHT22;7272;53.668;9.578;2022-07-23T03:38:39;16.70;99.90
14378;DHT22;7272;53.668;9.578;2022-07-23T03:41:42;16.60;99.90
14378;DHT22;7272;53.668;9.578;2022-07-23T03:44:45;16.80;99.90
14378;DHT22;7272;53.668;9.578;2022-07-23T03:47:47;16.80;99.90
14378;DHT22;7272;53.668;9.578;2022-07-23T03:50:49;16.70;99.90
14378;DHT22;7272;53.668;9.578;2022-07-23T03:53:52;16.60;99.90
14378;DHT22;7272;53.668;9.578;2022-07-23T03:56:56;16.50;99.90
14378;DHT22;7272;53.668;9.578;2022-07-23T03:59:58;16.40;99.90
14378;DHT22;7272;53.668;9.578;2022-07-23T04:03:00;16.30;99.90
14378;DHT22;7272;53.668;9.578;2022-07-23T04:06:03;16.20;99.90
14378;DHT22;7272;53.668;9.578;2022-07-23T04:09:06;16.20;99.90
14378;DHT22;7272;53.668;9.578;2022-07-23T04:12:09;16.20;99.90
14378;DHT22;7272;53.668;9.578;2022-07-23T04:15:11;16.20;99.90
14378;DHT22;7272;53.668;9.578;2022-07-23T04:18:13;16.30;99.90
14378;DHT22;7272;53.668;9.578;2022-07-23T04:21:28;16.40;99.90
14378;DHT22;7272;53.668;9.578;2022-07-23T04:24:30;16.50;99.90
14378;DHT22;7272;53.668;9.578;2022-07-23T04:27:34;16.70;99.90
14378;DHT22;7272;53.668;9.578;2022-07-23T04:30:36;16.80;99.90
14378;DHT22;7272;53.668;9.578;2022-07-23T04:33:40;16.80;99.90
14378;DHT22;7272;53.668;9.578;2022-07-23T04:36:42;16.90;99.90
14378;DHT22;7272;53.668;9.578;2022-07-23T04:39:44;16.90;99.90
14378;DHT22;7272;53.668;9.578;2022-07-23T04:42:48;16.90;99.90
14378;DHT22;7272;53.668;9.578;2022-07-23T04:45:50;16.90;99.90
14378;DHT22;7272;53.668;9.578;2022-07-23T04:48:54;16.90;99.90
14378;DHT22;7272;53.668;9.578;2022-07-23T04:51:56;17.00;99.90
14378;DHT22;7272;53.668;9.578;2022-07-23T04:54:58;17.00;99.90
14378;DHT22;7272;53.668;9.578;2022-07-23T04:58:02;17.00;99.90
14378;DHT22;7272;53.668;9.578;2022-07-23T05:01:04;16.90;99.90
14378;DHT22;7272;53.668;9.578;2022-07-23T05:04:08;16.90;99.90
14378;DHT22;7272;53.668;9.578;2022-07-23T05:07:12;16.90;99.90
14378;DHT22;7272;53.668;9.578;2022-07-23T05:10:15;16.90;99.90
14378;DHT22;7272;53.668;9.578;2022-07-23T05:13:18;16.90;99.90
14378;DHT22;7272;53.668;9.578;2022-07-23T05:16:21;16.90;99.90
14378;DHT22;7272;53.668;9.578;2022-07-23T05:19:23;17.00;99.90
14378;DHT22;7272;53.668;9.578;2022-07-23T05:22:25;17.00;99.90
14378;DHT22;7272;53.668;9.578;2022-07-23T05:25:28;17.00;99.90
14378;DHT22;7272;53.668;9.578;2022-07-23T05:28:31;17.00;99.90
14378;DHT22;7272;53.668;9.578;2022-07-23T05:31:33;17.00;99.90
14378;DHT22;7272;53.668;9.578;2022-07-23T05:34:36;16.90;99.90
14378;DHT22;7272;53.668;9.578;2022-07-23T05:37:39;16.80;99.90
14378;DHT22;7272;53.668;9.578;2022-07-23T05:40:44;16.80;99.90
14378;DHT22;7272;53.668;9.578;2022-07-23T05:43:48;16.80;99.90
14378;DHT22;7272;53.668;9.578;2022-07-23T05:46:50;16.80;99.90
14378;DHT22;7272;53.668;9.578;2022-07-23T05:49:55;16.90;99.90
14378;DHT22;7272;53.668;9.578;2022-07-23T05:53:10;16.90;99.90
14378;DHT22;7272;53.668;9.578;2022-07-23T05:56:50;17.00;99.90
14378;DHT22;7272;53.668;9.578;2022-07-23T05:59:54;17.00;99.90
14378;DHT22;7272;53.668;9.578;2022-07-23T06:02:56;16.90;99.90
14378;DHT22;7272;53.668;9.578;2022-07-23T06:05:59;16.90;99.90
14378;DHT22;7272;53.668;9.578;2022-07-23T06:09:01;17.00;99.90
14378;DHT22;7272;53.668;9.578;2022-07-23T06:12:04;17.00;99.90
14378;DHT22;7272;53.668;9.578;2022-07-23T06:15:09;17.10;99.90
14378;DHT22;7272;53.668;9.578;2022-07-23T06:18:13;17.10;99.90
14378;DHT22;7272;53.668;9.578;2022-07-23T06:21:15;17.10;99.90
14378;DHT22;7272;53.668;9.578;2022-07-23T06:24:17;17.00;99.90
14378;DHT22;7272;53.668;9.578;2022-07-23T06:27:20;17.00;99.90
14378;DHT22;7272;53.668;9.578;2022-07-23T06:30:26;16.90;99.90
14378;DHT22;7272;53.668;9.578;2022-07-23T06:33:28;17.00;99.90
14378;DHT22;7272;53.668;9.578;2022-07-23T06:36:30;17.00;99.90
14378;DHT22;7272;53.668;9.578;2022-07-23T06:39:32;16.90;99.90
14378;DHT22;7272;53.668;9.578;2022-07-23T06:42:34;16.90;99.90
14378;DHT22;7272;53.668;9.578;2022-07-23T06:45:38;17.00;99.90
14378;DHT22;7272;53.668;9.578;2022-07-23T06:48:41;17.00;99.90
14378;DHT22;7272;53.668;9.578;2022-07-23T06:51:42;17.00;99.90
14378;DHT22;7272;53.668;9.578;2022-07-23T06:54:45;17.00;99.90
14378;DHT22;7272;53.668;9.578;2022-07-23T06:57:47;17.00;99.90
14378;DHT22;7272;53.668;9.578;2022-07-23T07:00:50;17.10;99.90
14378;DHT22;7272;53.668;9.578;2022-07-23T07:03:52;17.20;99.90
14378;DHT22;7272;53.668;9.578;2022-07-23T07:06:54;17.30;99.90
14378;DHT22;7272;53.668;9.578;2022-07-23T07:09:56;17.40;99.90
14378;DHT22;7272;53.668;9.578;2022-07-23T07:12:58;17.50;99.90
14378;DHT22;7272;53.668;9.578;2022-07-23T07:16:02;17.70;99.90
14378;DHT22;7272;53.668;9.578;2022-07-23T07:19:03;17.70;99.90
14378;DHT22;7272;53.668;9.578;2022-07-23T07:22:05;17.50;99.90
14378;DHT22;7272;53.668;9.578;2022-07-23T07:25:08;17.50;99.90
14378;DHT22;7272;53.668;9.578;2022-07-23T07:28:10;17.40;99.90
14378;DHT22;7272;53.668;9.578;2022-07-23T07:31:14;17.40;99.90
14378;DHT22;7272;53.668;9.578;2022-07-23T07:34:16;17.40;99.90
14378;DHT22;7272;53.668;9.578;2022-07-23T07:37:17;17.50;99.90
14378;DHT22;7272;53.668;9.578;2022-07-23T07:40:20;17.60;99.90
14378;DHT22;7272;53.668;9.578;2022-07-23T07:43:22;17.60;99.90
14378;DHT22;7272;53.668;9.578;2022-07-23T07:46:25;17.80;99.90
14378;DHT22;7272;53.668;9.578;2022-07-23T07:49:28;17.90;99.90
14378;DHT22;7272;53.668;9.578;2022-07-23T07:52:30;18.00;99.90
14378;DHT22;7272;53.668;9.578;2022-07-23T07:55:32;18.20;99.90
14378;DHT22;7272;53.668;9.578;2022-07-23T07:58:34;18.30;99.90
14378;DHT22;7272;53.668;9.578;2022-07-23T08:01:37;18.50;99.90
14378;DHT22;7272;53.668;9.578;2022-07-23T08:04:39;18.70;99.90
14378;DHT22;7272;53.668;9.578;2022-07-23T08:07:41;18.80;99.90
14378;DHT22;7272;53.668;9.578;2022-07-23T08:10:44;19.00;99.90
14378;DHT22;7272;53.668;9.578;2022-07-23T08:13:46;19.10;99.90
14378;DHT22;7272;53.668;9.578;2022-07-23T08:16:49;19.20;99.90
14378;DHT22;7272;53.668;9.578;2022-07-23T08:19:54;19.40;99.90
14378;DHT22;7272;53.668;9.578;2022-07-23T08:22:57;19.40;99.90
14378;DHT22;7272;53.668;9.578;2022-07-23T08:26:00;19.50;99.90
14378;DHT22;7272;53.668;9.578;2022-07-23T08:29:02;19.50;99.90
14378;DHT22;7272;53.668;9.578;2022-07-23T08:32:05;19.50;99.90
14378;DHT22;7272;53.668;9.578;2022-07-23T08:35:07;19.70;99.90
14378;DHT22;7272;53.668;9.578;2022-07-23T08:38:10;19.80;99.90
14378;DHT22;7272;53.668;9.578;2022-07-23T08:41:14;19.90;99.90
14378;DHT22;7272;53.668;9.578;2022-07-23T08:44:17;20.00;99.90
14378;DHT22;7272;53.668;9.578;2022-07-23T08:47:20;20.10;99.90
14378;DHT22;7272;53.668;9.578;2022-07-23T08:50:23;20.10;99.90
14378;DHT22;7272;53.668;9.578;2022-07-23T08:53:27;20.00;99.90
14378;DHT22;7272;53.668;9.578;2022-07-23T08:56:29;20.00;99.90
14378;DHT22;7272;53.668;9.578;2022-07-23T08:59:31;19.90;99.90
14378;DHT22;7272;53.668;9.578;2022-07-23T09:02:40;19.90;99.90
14378;DHT22;7272;53.668;9.578;2022-07-23T09:05:42;20.00;99.90
14378;DHT22;7272;53.668;9.578;2022-07-23T09:08:44;20.10;99.90
14378;DHT22;7272;53.668;9.578;2022-07-23T09:11:47;19.90;99.90
14378;DHT22;7272;53.668;9.578;2022-07-23T09:14:49;19.60;99.90
14378;DHT22;7272;53.668;9.578;2022-07-23T09:17:53;19.50;99.90
14378;DHT22;7272;53.668;9.578;2022-07-23T09:21:09;19.20;99.90
14378;DHT22;7272;53.668;9.578;2022-07-23T09:24:13;18.90;99.90
14378;DHT22;7272;53.668;9.578;2022-07-23T09:27:16;18.60;99.90
14378;DHT22;7272;53.668;9.578;2022-07-23T09:30:19;18.50;99.90
14378;DHT22;7272;53.668;9.578;2022-07-23T09:33:24;18.50;99.90
14378;DHT22;7272;53.668;9.578;2022-07-23T09:36:28;19.00;99.90
14378;DHT22;7272;53.668;9.578;2022-07-23T09:39:33;20.00;99.90
14378;DHT22;7272;53.668;9.578;2022-07-23T09:42:35;20.20;99.90
14378;DHT22;7272;53.668;9.578;2022-07-23T09:45:37;20.10;99.90
14378;DHT22;7272;53.668;9.578;2022-07-23T09:48:41;20.00;99.90
14378;DHT22;7272;53.668;9.578;2022-07-23T09:51:48;19.80;99.90
14378;DHT22;7272;53.668;9.578;2022-07-23T09:54:57;19.70;99.90
14378;DHT22;7272;53.668;9.578;2022-07-23T09:58:00;19.60;99.90
14378;DHT22;7272;53.668;9.578;2022-07-23T10:01:02;19.50;99.90
14378;DHT22;7272;53.668;9.578;2022-07-23T10:04:07;19.60;99.90
14378;DHT22;7272;53.668;9.578;2022-07-23T10:07:37;20.20;99.90
14378;DHT22;7272;53.668;9.578;2022-07-23T10:11:00;20.50;99.90
14378;DHT22;7272;53.668;9.578;2022-07-23T10:14:20;20.40;99.90
14378;DHT22;7272;53.668;9.578;2022-07-23T10:17:33;20.30;99.90
14378;DHT22;7272;53.668;9.578;2022-07-23T10:20:37;19.90;99.90
14378;DHT22;7272;53.668;9.578;2022-07-23T10:23:47;19.70;99.90
14378;DHT22;7272;53.668;9.578;2022-07-23T10:27:12;20.00;99.90
14378;DHT22;7272;53.668;9.578;2022-07-23T10:30:21;20.30;99.90
14378;DHT22;7272;53.668;9.578;2022-07-23T10:33:30;20.40;99.90
14378;DHT22;7272;53.668;9.578;2022-07-23T10:36:42;20.40;99.90
14378;DHT22;7272;53.668;9.578;2022-07-23T10:39:46;20.30;99.90
14378;DHT22;7272;53.668;9.578;2022-07-23T10:42:50;20.20;99.90
14378;DHT22;7272;53.668;9.578;2022-07-23T10:45:52;20.10;99.90
14378;DHT22;7272;53.668;9.578;2022-07-23T10:49:22;20.20;99.90
14378;DHT22;7272;53.668;9.578;2022-07-23T10:52:26;19.90;99.90
14378;DHT22;7272;53.668;9.578;2022-07-23T10:55:46;19.60;99.90
14378;DHT22;7272;53.668;9.578;2022-07-23T10:58:49;19.40;99.90
14378;DHT22;7272;53.668;9.578;2022-07-23T11:01:52;19.50;99.90
14378;DHT22;7272;53.668;9.578;2022-07-23T11:04:58;19.50;99.90
14378;DHT22;7272;53.668;9.578;2022-07-23T11:08:16;19.40;99.90
14378;DHT22;7272;53.668;9.578;2022-07-23T11:11:18;19.40;99.90
14378;DHT22;7272;53.668;9.578;2022-07-23T11:14:58;19.30;99.90
14378;DHT22;7272;53.668;9.578;2022-07-23T11:18:00;19.30;99.90
14378;DHT22;7272;53.668;9.578;2022-07-23T11:24:50;19.70;99.90
14378;DHT22;7272;53.668;9.578;2022-07-23T11:27:52;19.90;99.90
14378;DHT22;7272;53.668;9.578;2022-07-23T11:30:54;19.80;99.90
14378;DHT22;7272;53.668;9.578;2022-07-23T11:34:30;19.70;99.90
14378;DHT22;7272;53.668;9.578;2022-07-23T11:37:34;19.60;99.90
14378;DHT22;7272;53.668;9.578;2022-07-23T11:40:38;19.90;99.90
14378;DHT22;7272;53.668;9.578;2022-07-23T11:43:40;20.00;99.90
14378;DHT22;7272;53.668;9.578;2022-07-23T11:46:54;20.00;99.90
14378;DHT22;7272;53.668;9.578;2022-07-23T11:49:59;20.10;99.90
14378;DHT22;7272;53.668;9.578;2022-07-23T11:53:02;20.30;99.90
14378;DHT22;7272;53.668;9.578;2022-07-23T11:56:07;20.20;99.90
14378;DHT22;7272;53.668;9.578;2022-07-23T11:59:11;20.20;99.90
14378;DHT22;7272;53.668;9.578;2022-07-23T12:02:16;20.10;99.90
14378;DHT22;7272;53.668;9.578;2022-07-23T12:05:19;20.10;99.90
14378;DHT22;7272;53.668;9.578;2022-07-23T12:08:22;20.30;99.90
14378;DHT22;7272;53.668;9.578;2022-07-23T12:11:25;20.60;99.90
14378;DHT22;7272;53.668;9.578;2022-07-23T12:14:27;20.60;99.90
14378;DHT22;7272;53.668;9.578;2022-07-23T12:17:32;20.80;99.90
14378;DHT22;7272;53.668;9.578;2022-07-23T12:20:38;20.60;99.90
14378;DHT22;7272;53.668;9.578;2022-07-23T12:23:40;20.60;99.90
14378;DHT22;7272;53.668;9.578;2022-07-23T12:27:11;20.70;99.90
14378;DHT22;7272;53.668;9.578;2022-07-23T12:30:19;20.70;99.90
14378;DHT22;7272;53.668;9.578;2022-07-23T12:33:23;20.70;99.90
14378;DHT22;7272;53.668;9.578;2022-07-23T12:36:37;20.80;99.90
14378;DHT22;7272;53.668;9.578;2022-07-23T12:39:40;20.70;99.90
14378;DHT22;7272;53.668;9.578;2022-07-23T12:42:43;20.70;99.90
14378;DHT22;7272;53.668;9.578;2022-07-23T12:45:48;20.70;99.90
14378;DHT22;7272;53.668;9.578;2022-07-23T12:48:52;20.70;99.90
14378;DHT22;7272;53.668;9.578;2022-07-23T12:51:54;20.60;99.90
14378;DHT22;7272;53.668;9.578;2022-07-23T12:54:56;20.60;99.90
14378;DHT22;7272;53.668;9.578;2022-07-23T12:58:05;20.40;99.90
14378;DHT22;7272;53.668;9.578;2022-07-23T13:01:07;20.20;99.90
14378;DHT22;7272;53.668;9.578;2022-07-23T13:04:12;20.20;99.90
14378;DHT22;7272;53.668;9.578;2022-07-23T13:07:14;20.40;99.90
14378;DHT22;7272;53.668;9.578;2022-07-23T13:10:16;20.80;99.90
14378;DHT22;7272;53.668;9.578;2022-07-23T13:13:22;21.00;99.90
14378;DHT22;7272;53.668;9.578;2022-07-23T13:16:24;20.90;99.90
14378;DHT22;7272;53.668;9.578;2022-07-23T13:19:26;20.70;99.90
14378;DHT22;7272;53.668;9.578;2022-07-23T13:22:29;20.60;99.90
14378;DHT22;7272;53.668;9.578;2022-07-23T13:25:31;20.60;99.90
14378;DHT22;7272;53.668;9.578;2022-07-23T13:28:35;20.70;99.90
14378;DHT22;7272;53.668;9.578;2022-07-23T13:31:38;20.90;99.90
14378;DHT22;7272;53.668;9.578;2022-07-23T13:34:40;20.80;99.90
14378;DHT22;7272;53.668;9.578;2022-07-23T13:37:43;20.70;99.90
14378;DHT22;7272;53.668;9.578;2022-07-23T13:40:48;20.90;99.90
14378;DHT22;7272;53.668;9.578;2022-07-23T13:43:51;20.90;99.90
14378;DHT22;7272;53.668;9.578;2022-07-23T13:46:53;21.20;99.90
14378;DHT22;7272;53.668;9.578;2022-07-23T13:49:55;21.30;99.90
14378;DHT22;7272;53.668;9.578;2022-07-23T13:53:00;21.30;99.90
14378;DHT22;7272;53.668;9.578;2022-07-23T13:56:03;21.40;99.90
14378;DHT22;7272;53.668;9.578;2022-07-23T13:59:06;21.30;99.90
14378;DHT22;7272;53.668;9.578;2022-07-23T14:02:08;21.20;99.90
14378;DHT22;7272;53.668;9.578;2022-07-23T14:05:11;21.30;99.90
14378;DHT22;7272;53.668;9.578;2022-07-23T14:08:13;21.40;99.90
14378;DHT22;7272;53.668;9.578;2022-07-23T14:11:14;21.20;99.90
14378;DHT22;7272;53.668;9.578;2022-07-23T14:14:18;21.00;99.90
14378;DHT22;7272;53.668;9.578;2022-07-23T14:17:20;20.90;99.90
14378;DHT22;7272;53.668;9.578;2022-07-23T14:20:22;20.80;99.90
14378;DHT22;7272;53.668;9.578;2022-07-23T14:23:24;20.90;99.90
14378;DHT22;7272;53.668;9.578;2022-07-23T14:26:26;21.10;99.90
14378;DHT22;7272;53.668;9.578;2022-07-23T14:29:30;21.30;99.90
14378;DHT22;7272;53.668;9.578;2022-07-23T14:32:32;21.20;99.90
14378;DHT22;7272;53.668;9.578;2022-07-23T14:35:34;20.90;99.90
14378;DHT22;7272;53.668;9.578;2022-07-23T14:38:36;20.50;99.90
14378;DHT22;7272;53.668;9.578;2022-07-23T14:41:38;20.40;99.90
14378;DHT22;7272;53.668;9.578;2022-07-23T14:44:42;20.20;99.90
14378;DHT22;7272;53.668;9.578;2022-07-23T14:47:44;20.00;99.90
14378;DHT22;7272;53.668;9.578;2022-07-23T14:50:46;20.00;99.90
14378;DHT22;7272;53.668;9.578;2022-07-23T14:53:51;20.30;99.90
14378;DHT22;7272;53.668;9.578;2022-07-23T14:56:55;20.70;99.90
14378;DHT22;7272;53.668;9.578;2022-07-23T14:59:58;21.10;99.90
14378;DHT22;7272;53.668;9.578;2022-07-23T15:03:02;21.20;99.90
14378;DHT22;7272;53.668;9.578;2022-07-23T15:06:04;20.90;99.90
14378;DHT22;7272;53.668;9.578;2022-07-23T15:09:06;20.70;99.90
14378;DHT22;7272;53.668;9.578;2022-07-23T15:12:08;20.50;99.90
14378;DHT22;7272;53.668;9.578;2022-07-23T15:15:12;20.40;99.90
14378;DHT22;7272;53.668;9.578;2022-07-23T15:18:16;20.30;99.90
14378;DHT22;7272;53.668;9.578;2022-07-23T15:21:18;20.50;99.90
14378;DHT22;7272;53.668;9.578;2022-07-23T15:24:20;20.40;99.90
14378;DHT22;7272;53.668;9.578;2022-07-23T15:27:22;20.40;99.90
14378;DHT22;7272;53.668;9.578;2022-07-23T15:30:28;20.40;99.90
14378;DHT22;7272;53.668;9.578;2022-07-23T15:33:30;20.40;99.90
14378;DHT22;7272;53.668;9.578;2022-07-23T15:36:32;20.40;99.90
14378;DHT22;7272;53.668;9.578;2022-07-23T15:39:34;20.30;99.90
14378;DHT22;7272;53.668;9.578;2022-07-23T15:42:36;20.40;99.90
14378;DHT22;7272;53.668;9.578;2022-07-23T15:45:40;20.50;99.90
14378;DHT22;7272;53.668;9.578;2022-07-23T15:48:42;20.40;99.90
14378;DHT22;7272;53.668;9.578;2022-07-23T15:51:45;20.20;99.90
14378;DHT22;7272;53.668;9.578;2022-07-23T15:54:48;20.30;99.90
14378;DHT22;7272;53.668;9.578;2022-07-23T15:57:50;20.40;99.90
14378;DHT22;7272;53.668;9.578;2022-07-23T16:00:54;20.40;99.90
14378;DHT22;7272;53.668;9.578;2022-07-23T16:03:56;20.30;99.90
14378;DHT22;7272;53.668;9.578;2022-07-23T16:06:59;20.40;99.90
14378;DHT22;7272;53.668;9.578;2022-07-23T16:10:02;20.40;99.90
14378;DHT22;7272;53.668;9.578;2022-07-23T16:13:04;20.50;99.90
14378;DHT22;7272;53.668;9.578;2022-07-23T16:16:08;20.40;99.90
14378;DHT22;7272;53.668;9.578;2022-07-23T16:19:10;20.30;99.90
14378;DHT22;7272;53.668;9.578;2022-07-23T16:22:12;20.20;99.90
14378;DHT22;7272;53.668;9.578;2022-07-23T16:25:16;20.00;99.90
14378;DHT22;7272;53.668;9.578;2022-07-23T16:28:18;20.00;99.90
14378;DHT22;7272;53.668;9.578;2022-07-23T16:31:21;20.00;99.90
14378;DHT22;7272;53.668;9.578;2022-07-23T16:34:24;20.00;99.90
14378;DHT22;7272;53.668;9.578;2022-07-23T16:37:26;20.00;99.90
14378;DHT22;7272;53.668;9.578;2022-07-23T16:40:28;20.10;99.90
14378;DHT22;7272;53.668;9.578;2022-07-23T16:43:30;20.10;99.90
14378;DHT22;7272;53.668;9.578;2022-07-23T16:46:35;20.00;99.90
14378;DHT22;7272;53.668;9.578;2022-07-23T16:49:37;19.80;99.90
14378;DHT22;7272;53.668;9.578;2022-07-23T16:52:39;19.70;99.90
14378;DHT22;7272;53.668;9.578;2022-07-23T16:55:41;19.70;99.90
14378;DHT22;7272;53.668;9.578;2022-07-23T16:58:43;19.50;99.90
14378;DHT22;7272;53.668;9.578;2022-07-23T17:01:47;19.40;99.90
14378;DHT22;7272;53.668;9.578;2022-07-23T17:04:50;19.40;99.90
14378;DHT22;7272;53.668;9.578;2022-07-23T17:07:52;19.40;99.90
14378;DHT22;7272;53.668;9.578;2022-07-23T17:10:55;19.40;99.90
14378;DHT22;7272;53.668;9.578;2022-07-23T17:13:57;19.30;99.90
14378;DHT22;7272;53.668;9.578;2022-07-23T17:17:00;19.20;99.90
14378;DHT22;7272;53.668;9.578;2022-07-23T17:20:04;19.20;99.90
14378;DHT22;7272;53.668;9.578;2022-07-23T17:23:07;19.20;99.90
14378;DHT22;7272;53.668;9.578;2022-07-23T17:26:09;19.20;99.90
14378;DHT22;7272;53.668;9.578;2022-07-23T17:29:11;19.10;99.90
14378;DHT22;7272;53.668;9.578;2022-07-23T17:32:15;19.00;99.90
14378;DHT22;7272;53.668;9.578;2022-07-23T17:35:17;19.00;99.90
14378;DHT22;7272;53.668;9.578;2022-07-23T17:38:19;19.00;99.90
14378;DHT22;7272;53.668;9.578;2022-07-23T17:41:21;18.90;99.90
14378;DHT22;7272;53.668;9.578;2022-07-23T17:44:23;18.90;99.90
14378;DHT22;7272;53.668;9.578;2022-07-23T17:47:26;18.80;99.90
14378;DHT22;7272;53.668;9.578;2022-07-23T17:50:28;18.80;99.90
14378;DHT22;7272;53.668;9.578;2022-07-23T17:53:30;18.70;99.90
14378;DHT22;7272;53.668;9.578;2022-07-23T17:56:32;18.70;99.90
14378;DHT22;7272;53.668;9.578;2022-07-23T17:59:35;18.70;99.90
14378;DHT22;7272;53.668;9.578;2022-07-23T18:02:38;18.80;99.90
14378;DHT22;7272;53.668;9.578;2022-07-23T18:05:40;18.80;99.90
14378;DHT22;7272;53.668;9.578;2022-07-23T18:08:42;18.60;99.90
14378;DHT22;7272;53.668;9.578;2022-07-23T18:11:44;18.50;99.90
14378;DHT22;7272;53.668;9.578;2022-07-23T18:14:46;18.50;99.90
14378;DHT22;7272;53.668;9.578;2022-07-23T18:17:50;18.30;99.90
14378;DHT22;7272;53.668;9.578;2022-07-23T18:20:53;18.40;99.90
14378;DHT22;7272;53.668;9.578;2022-07-23T18:23:55;18.30;99.90
14378;DHT22;7272;53.668;9.578;2022-07-23T18:26:57;18.30;99.90
14378;DHT22;7272;53.668;9.578;2022-07-23T18:29:59;18.10;99.90
14378;DHT22;7272;53.668;9.578;2022-07-23T18:33:03;18.10;99.90
14378;DHT22;7272;53.668;9.578;2022-07-23T18:36:06;18.00;99.90
14378;DHT22;7272;53.668;9.578;2022-07-23T18:39:08;18.00;99.90
14378;DHT22;7272;53.668;9.578;2022-07-23T18:42:10;17.90;99.90
14378;DHT22;7272;53.668;9.578;2022-07-23T18:45:12;17.90;99.90
14378;DHT22;7272;53.668;9.578;2022-07-23T18:48:17;17.80;99.90
14378;DHT22;7272;53.668;9.578;2022-07-23T18:51:19;17.70;99.90
14378;DHT22;7272;53.668;9.578;2022-07-23T18:54:21;17.60;99.90
14378;DHT22;7272;53.668;9.578;2022-07-23T18:57:23;17.50;99.90
14378;DHT22;7272;53.668;9.578;2022-07-23T19:00:25;17.40;99.90
14378;DHT22;7272;53.668;9.578;2022-07-23T19:03:29;17.60;99.90
14378;DHT22;7272;53.668;9.578;2022-07-23T19:06:31;17.50;99.90
14378;DHT22;7272;53.668;9.578;2022-07-23T19:09:33;17.40;99.90
14378;DHT22;7272;53.668;9.578;2022-07-23T19:12:35;17.20;99.90
14378;DHT22;7272;53.668;9.578;2022-07-23T19:15:37;17.20;99.90
14378;DHT22;7272;53.668;9.578;2022-07-23T19:18:40;17.10;99.90
14378;DHT22;7272;53.668;9.578;2022-07-23T19:21:42;17.10;99.90
14378;DHT22;7272;53.668;9.578;2022-07-23T19:24:44;17.10;99.90
14378;DHT22;7272;53.668;9.578;2022-07-23T19:27:46;17.00;99.90
14378;DHT22;7272;53.668;9.578;2022-07-23T19:30:48;16.90;99.90
14378;DHT22;7272;53.668;9.578;2022-07-23T19:33:52;16.90;99.90
14378;DHT22;7272;53.668;9.578;2022-07-23T19:36:54;16.80;99.90
14378;DHT22;7272;53.668;9.578;2022-07-23T19:39:56;16.70;99.90
14378;DHT22;7272;53.668;9.578;2022-07-23T19:42:58;16.60;99.90